• Join FlightAware (Why Join?)
  • Login
  • US Flag 
12:11AM EST


 

Airport Tracker/Info


-or-


 

Live Flight TrackerFlight Track Log ✈ SWA412 ✈ 26-Jan-2014 ✈ KTPA - KBWI

Flight Track Log - Related Links

Times and Time Zones

All times are in EST time to prevent confusion due to time zone crossing. See the SWA412 flight status page for this flight to view local times or setup timezone preferences in your user account.

Time Position Orientation Groundspeed Altitude Reporting Facility
EST Latitude Longitude Course Direction KTS MPH feet Rate Location/Type
11:13AM 28.0000 -82.5500 North 152 175 1,200  Level Tampa TRACON
11:14AM 28.0667 -82.5500 360° North 222 255 3,400 2,160 Climbing Tampa TRACON
11:16AM 28.1911 -82.5511 360° North 279 321 7,500 2,460 Climbing Jacksonville Center
11:17AM 28.2725 -82.5581 356° North 291 335 10,400 2,640 Climbing Jacksonville Center
11:18AM 28.3667 -82.5622 358° North 314 361 12,800 2,700 Climbing Jacksonville Center
11:19AM 28.6526 -82.5833 North  Level FlightAware Approximate
11:19AM 28.4708 -82.5739 354° North 346 398 15,900  Level Jacksonville Center
11:20AM 28.5772 -82.5806 357° North 363 418 18,600 2,640 Climbing Jacksonville Center
11:21AM 28.6942 -82.5919 355° North 385 443 21,200 2,580 Climbing Jacksonville Center
11:22AM 28.8008 -82.6058 353° North 397 457 23,800 1,380 Climbing Jacksonville Center
11:23AM 28.9197 -82.6222 353° North 415 478 24,000 60 Climbing Jacksonville Center
11:24AM 29.0367 -82.6408 352° North 415 478 24,000  Level Jacksonville Center
11:25AM 29.1514 -82.6572 353° North 420 483 24,000 600 Level Jacksonville Center
11:26AM 29.2664 -82.6711 354° North 420 483 25,300 1,500 Climbing Jacksonville Center
11:27AM 29.3894 -82.6900 352° North 425 489 27,000 1,740 Climbing Jacksonville Center
11:28AM 29.5211 -82.6969 357° North 443 510 28,800 1,680 Climbing Jacksonville Center
11:29AM 29.6525 -82.6942 North 458 527 30,400 1,620 Climbing Jacksonville Center
11:30AM 29.7842 -82.6747 North 470 541 32,100 1,860 Climbing Jacksonville Center
11:31AM 29.9258 -82.6144 20° North 479 551 34,200 1,620 Climbing Jacksonville Center
11:32AM 30.0428 -82.5733 17° North 479 551 35,400 1,200 Climbing Jacksonville Center
11:33AM 30.1742 -82.5250 18° North 479 551 36,700 1,200 Climbing Jacksonville Center
11:34AM 30.2992 -82.4739 19° North 479 551 37,900 1,080 Climbing Jacksonville Center
11:35AM 30.4306 -82.4253 18° North 479 551 38,900 540 Climbing Jacksonville Center
11:36AM 30.5578 -82.3764 18° North 479 551 39,000  Climbing Jacksonville Center
11:37AM 30.6892 -82.3272 18° North 479 551 39,000  Level Jacksonville Center
11:38AM 30.8142 -82.2781 19° North 479 551 39,000  Level Jacksonville Center
11:39AM 30.9433 -82.2264 19° North 479 551 39,000  Level Jacksonville Center
11:40AM 31.0725 -82.1769 18° North 479 551 39,000  Level Jacksonville Center
11:41AM 31.2100 -82.1250 18° North 479 551 39,000  Level Jacksonville Center
11:42AM 31.3372 -82.0753 18° North 479 551 39,000  Level Jacksonville Center
11:43AM 31.4661 -82.0231 19° North 485 558 39,000  Level Jacksonville Center
11:44AM 31.5953 -81.9731 18° North 480 552 39,000  Level Jacksonville Center
11:45AM 31.7203 -81.9231 19° North 480 552 39,000  Level Jacksonville Center
11:46AM 31.8347 -81.8778 19° North 475 547 39,000  Level Jacksonville Center
11:47AM 31.9761 -81.8197 19° North 481 554 39,000  Level Jacksonville Center
11:48AM 32.1053 -81.7692 18° North 481 554 39,000  Level Jacksonville Center
11:49AM 32.2175 -81.7236 19° North 481 554 39,000  Level Jacksonville Center
11:50AM 32.3589 -81.6703 18° North 481 554 39,000  Level Jacksonville Center
11:51AM 32.4836 -81.6194 19° North 476 548 39,000  Level Jacksonville Center
11:52AM 32.5961 -81.5733 19° North 476 548 39,000  Level Jacksonville Center
11:53AM 32.7228 -81.5222 19° North 477 549 39,000  Level Jacksonville Center
11:54AM 32.8494 -81.4708 19° North 477 549 39,000  Level Jacksonville Center
11:55AM 32.9742 -81.4167 20° North 477 549 39,000  Level Jacksonville Center
11:56AM 33.1003 -81.3181 33° Northeast 477 549 39,000  Level Jacksonville Center
11:57AM 33.2139 -81.2242 35° Northeast 482 555 39,000  Level Jacksonville Center
11:58AM 33.3275 -81.1275 35° Northeast 493 567 39,000  Level Jacksonville Center
11:59AM 33.4367 -81.0308 36° Northeast 493 567 39,000  Level Jacksonville Center
12:00PM 33.5500 -80.9361 35° Northeast 493 567 39,000  Level Jacksonville Center
12:01PM 33.6631 -80.8364 36° Northeast 493 567 39,000  Level Jacksonville Center
12:02PM 33.7722 -80.7414 36° Northeast 493 567 39,000  Level Jacksonville Center
12:03PM 33.8853 -80.6436 36° Northeast 493 567 39,000  Level Jacksonville Center
12:04PM 33.9961 -80.5481 36° Northeast 493 567 39,000  Level Jacksonville Center
12:06PM 34.1800 -80.3864 36° Northeast 486 559 39,000  Level Washington Center
12:07PM 34.2925 -80.2875 36° Northeast 491 565 39,000  Level Washington Center
12:08PM 34.4028 -80.1881 37° Northeast 496 571 39,000  Level Washington Center
12:09PM 34.5147 -80.0908 36° Northeast 491 565 39,000  Level Washington Center
12:10PM 34.6142 -80.0031 36° Northeast 491 565 39,000  Level Washington Center
12:11PM 34.7239 -79.9078 36° Northeast 491 565 39,000  Level Washington Center
12:12PM 34.8319 -79.8100 37° Northeast 491 565 39,000  Level Washington Center
12:13PM 34.9417 -79.7117 36° Northeast 491 565 39,000  Level Washington Center
12:14PM 35.0514 -79.6133 36° Northeast 491 565 39,000  Level Washington Center
12:15PM 35.1611 -79.5147 36° Northeast 491 565 39,000  Level Washington Center
12:16PM 35.2728 -79.4158 36° Northeast 491 565 39,000  Level Washington Center
12:17PM 35.3844 -79.3142 37° Northeast 496 571 39,000  Level Washington Center
12:18PM 35.4961 -79.2147 36° Northeast 496 571 39,000  Level Washington Center
12:19PM 35.6056 -79.1125 37° Northeast 496 571 39,000  Level Washington Center
12:20PM 35.7169 -79.0125 36° Northeast 496 571 39,000 -240 Level Washington Center
12:21PM 35.8306 -78.9097 36° Northeast 496 571 38,600 -1,440 Descending Washington Center
12:22PM 35.9397 -78.8092 37° Northeast 496 571 36,200 -2,400 Descending Washington Center
12:23PM 36.0486 -78.7083 37° Northeast 496 571 33,800 -2,280 Descending Washington Center
12:24PM 36.1556 -78.6069 37° Northeast 491 565 31,800 -2,040 Descending Washington Center
12:25PM 36.2603 -78.5106 37° Northeast 491 565 29,800 -1,380 Descending Washington Center
12:26PM 36.3628 -78.4136 37° Northeast 479 551 29,000 -420 Descending Washington Center
12:27PM 36.4653 -78.3167 37° Northeast 469 540 29,000  Level Washington Center
12:28PM 36.5717 -78.2169 37° Northeast 469 540 29,000 -360 Level Washington Center
12:29PM 36.6719 -78.1169 39° Northeast 469 540 28,300 -600 Descending Washington Center
12:30PM 36.7761 -78.0217 36° Northeast 464 534 27,800 -840 Descending Washington Center
12:31PM 36.8783 -77.9211 38° Northeast 464 534 26,700 -1,140 Descending Washington Center
12:32PM 36.9761 -77.8278 37° Northeast 464 534 25,600 -1,140 Descending Washington Center
12:33PM 37.0736 -77.7369 37° Northeast 454 522 24,500 -1,140 Descending Washington Center
12:34PM 37.1692 -77.6431 38° Northeast 441 507 23,400 -780 Descending Washington Center
12:35PM 37.2603 -77.5542 38° Northeast 429 494 23,000 -240 Descending Washington Center
12:36PM 37.3514 -77.4678 37° Northeast 422 486 23,000  Level Washington Center
12:37PM 37.4444 -77.3783 37° Northeast 422 486 23,000  Level Washington Center
12:38PM 37.5519 -77.3050 28° Northeast 422 486 23,000  Level Washington Center
12:39PM 37.6544 -77.2864 North 380 437 23,000  Level Washington Center
12:40PM 37.7592 -77.2675 North 373 429 23,000  Level Washington Center
12:41PM 37.8658 -77.2464 North 373 429 23,000 -240 Level Washington Center
12:42PM 37.9703 -77.2250 North 373 429 22,600 -1,080 Descending Washington Center
12:43PM 38.0603 -77.2083 North 373 429 20,900 -1,740 Descending Washington Center
12:44PM 38.1583 -77.1867 10° North 373 429 19,100 -1,800 Descending Washington Center
12:45PM 38.2631 -77.1625 10° North 362 417 17,300 -1,800 Descending Washington Center
12:46PM 38.3508 -77.1458 North 351 404 15,600 -1,800 Descending Washington Center
12:47PM 38.4353 -77.0733 34° Northeast 351 404 13,800 -1,740 Descending Washington Center
12:48PM 38.5114 -76.9819 43° Northeast 353 406 12,100 -1,380 Descending Washington Center
12:49PM 38.5833 -76.8931 44° Northeast 353 406 11,100 -1,020 Descending Washington Center
12:50PM 38.6528 -76.8119 42° Northeast 346 398 10,100 -1,200 Descending Washington Center
12:51PM 38.7161 -76.7250 47° Northeast 331 381 8,800 -1,380 Descending Washington Center
12:52PM 38.7567 -76.6244 63° Northeast 325 374 7,400 -1,320 Descending Washington Center
12:53PM 38.8333 -76.5333 43° Northeast 271 312 5,700 -1,140 Descending Potomac TRACON
12:54PM 38.9000 -76.5667 339° North 251 289 4,800 -900 Descending Potomac TRACON
12:55PM 38.9500 -76.5833 345° North 248 285 4,000 -480 Descending Potomac TRACON
12:56PM 39.0000 -76.6500 314° West 248 285 4,000 -180 Level Potomac TRACON
12:57PM 39.0333 -76.7167 303° West 239 275 3,700 -540 Descending Potomac TRACON
12:58PM 39.0667 -76.8167 293° West 237 273 3,000 -840 Descending Potomac TRACON
12:59PM 39.1333 -76.8333 349° North 262 302 2,000 -540 Descending Potomac TRACON
01:00PM 39.1833 -76.8167 14° North 254 292 1,900 -360 Descending Potomac TRACON
01:01PM 39.1833 -76.7500 90° East 194 223 1,300 -720 Descending Potomac TRACON
01:02PM 39.1833 -76.7000 90° East 173 199 600 -780 Descending Potomac TRACON
01:04PM 39.1667 -76.6667 104° East  Level FlightAware Approximate
01:11PM 39.1754 -76.6683 104° East  Level Estimated
01:12PM 39.1754 -76.6683 104° East  Level Estimated
01:13PM 39.1754 -76.6683 104° East  Level Estimated